createdAt,value
2022-10-30T00:02:24.298Z,9.38
2022-10-30T00:07:25.978Z,8.57
2022-10-30T00:12:27.722Z,9.35
2022-10-30T00:17:29.387Z,8.00
2022-10-30T00:22:31.191Z,8.40
2022-10-30T00:27:32.815Z,8.70
2022-10-30T00:32:34.410Z,8.57
2022-10-30T00:37:36.264Z,9.27
2022-10-30T00:42:37.955Z,8.60
2022-10-30T00:47:44.268Z,8.45
2022-10-30T00:52:52.752Z,9.93
2022-10-30T00:57:55.048Z,8.52
2022-10-30T01:02:58.160Z,8.60
2022-10-30T01:08:00.474Z,8.95
2022-10-30T01:13:02.867Z,8.73
2022-10-30T01:18:21.736Z,8.70
2022-10-30T01:23:30.958Z,8.63
2022-10-30T01:34:18.659Z,8.40
2022-10-30T01:39:25.434Z,8.60
2022-10-30T01:44:33.089Z,9.18
2022-10-30T01:50:03.808Z,9.30
2022-10-30T01:55:14.713Z,10.00
2022-10-30T02:00:17.600Z,9.32
2022-10-30T02:05:36.502Z,10.85
2022-10-30T02:10:39.085Z,8.98
2022-10-30T02:15:42.569Z,10.38
2022-10-30T02:20:44.466Z,10.68
2022-10-30T02:25:46.155Z,9.55
2022-10-30T02:30:47.761Z,9.15
2022-10-30T02:35:49.472Z,9.32
2022-10-30T02:40:51.201Z,8.98
2022-10-30T02:45:52.886Z,9.45
2022-10-30T02:51:01.171Z,9.02
2022-10-30T02:56:06.022Z,10.25
2022-10-30T03:01:15.667Z,8.88
2022-10-30T03:06:18.354Z,9.15
2022-10-30T03:11:21.185Z,10.38
2022-10-30T03:16:25.948Z,11.20
2022-10-30T03:21:28.870Z,10.35
2022-10-30T03:26:30.765Z,9.57
2022-10-30T03:31:39.033Z,8.50
2022-10-30T03:36:49.077Z,9.18
2022-10-30T03:41:50.743Z,8.40
2022-10-30T03:46:52.618Z,7.82
2022-10-30T03:52:03.880Z,9.50
2022-10-30T03:57:05.991Z,9.10
2022-10-30T04:02:37.173Z,8.18
2022-10-30T04:07:39.310Z,9.15
2022-10-30T04:12:41.211Z,8.68
2022-10-30T04:17:49.994Z,8.52
2022-10-30T04:23:00.369Z,9.03
2022-10-30T04:28:03.350Z,9.00
2022-10-30T04:33:07.404Z,9.52
2022-10-30T04:38:12.634Z,9.32
2022-10-30T04:43:14.665Z,9.07
2022-10-30T04:48:18.890Z,8.98
2022-10-30T04:53:22.244Z,8.75
2022-10-30T04:58:28.133Z,9.23
2022-10-30T05:03:40.539Z,8.77
2022-10-30T05:08:50.350Z,8.97
2022-10-30T05:14:04.083Z,9.35
2022-10-30T05:19:05.943Z,9.52
2022-10-30T05:24:09.198Z,10.10
2022-10-30T05:29:16.781Z,9.40
2022-10-30T05:34:19.150Z,9.48
2022-10-30T05:39:24.300Z,9.57
2022-10-30T05:44:47.620Z,10.25
2022-10-30T05:49:54.172Z,10.02
2022-10-30T05:54:59.345Z,9.75
2022-10-30T06:00:40.739Z,9.63
2022-10-30T06:05:45.936Z,9.38
2022-10-30T06:10:48.679Z,10.20
2022-10-30T06:15:57.985Z,8.55
2022-10-30T06:21:05.290Z,9.50
2022-10-30T06:26:22.653Z,9.77
2022-10-30T06:31:27.174Z,8.95
2022-10-30T06:36:29.109Z,9.05
2022-10-30T06:41:31.320Z,8.38
2022-10-30T06:46:39.719Z,9.25
2022-10-30T06:51:42.173Z,9.43
2022-10-30T06:56:44.028Z,10.20
2022-10-30T07:02:18.420Z,8.77
2022-10-30T07:07:25.444Z,9.45
2022-10-30T07:12:27.235Z,9.23
2022-10-30T07:18:04.136Z,9.43
2022-10-30T07:23:09.209Z,11.35
2022-10-30T07:28:10.905Z,9.82
2022-10-30T07:33:17.556Z,9.77
2022-10-30T07:38:30.949Z,10.15
2022-10-30T07:43:43.170Z,10.68
2022-10-30T07:49:17.255Z,10.35
2022-10-30T07:54:28.604Z,10.60
2022-10-30T07:59:32.389Z,9.13
2022-10-30T08:04:52.717Z,10.93
2022-10-30T08:10:08.839Z,11.05
2022-10-30T08:15:11.429Z,10.10
2022-10-30T08:20:15.524Z,10.30
2022-10-30T08:25:19.476Z,11.30
2022-10-30T08:30:22.584Z,10.15
2022-10-30T08:35:28.184Z,11.23
2022-10-30T08:40:32.390Z,10.02
2022-10-30T08:45:41.425Z,11.27
2022-10-30T08:50:51.350Z,10.27
2022-10-30T08:56:01.572Z,10.57
2022-10-30T09:01:14.159Z,10.93
2022-10-30T09:06:36.155Z,10.77
2022-10-30T09:11:59.770Z,10.13
2022-10-30T09:17:01.760Z,11.05
2022-10-30T09:22:04.543Z,10.48
2022-10-30T09:27:08.131Z,10.65
2022-10-30T09:32:19.368Z,9.77
2022-10-30T09:37:41.353Z,10.80
2022-10-30T09:42:48.986Z,10.85
2022-10-30T09:48:03.773Z,10.05
2022-10-30T09:53:39.101Z,10.48
2022-10-30T09:59:05.172Z,10.40
2022-10-30T10:09:47.423Z,10.20
2022-10-30T10:15:50.504Z,10.10
2022-10-30T10:20:57.745Z,8.98
2022-10-30T10:26:11.914Z,9.50
2022-10-30T10:31:32.143Z,8.75
2022-10-30T10:36:53.447Z,9.57
2022-10-30T10:42:13.144Z,9.07
2022-10-30T10:47:32.267Z,8.80
2022-10-30T10:52:41.867Z,8.43
2022-10-30T10:57:45.157Z,8.20
2022-10-30T11:03:07.508Z,8.18
2022-10-30T11:08:20.296Z,8.73
2022-10-30T11:13:25.055Z,6.85
2022-10-30T11:18:26.671Z,8.07
2022-10-30T11:23:40.664Z,7.85
2022-10-30T11:28:50.061Z,7.93
2022-10-30T11:33:52.020Z,6.97
2022-10-30T11:39:08.865Z,8.40
2022-10-30T11:44:11.964Z,7.68
2022-10-30T11:49:46.715Z,7.22
2022-10-30T11:54:52.550Z,7.50
2022-10-30T12:00:02.154Z,8.48
2022-10-30T12:05:25.476Z,6.97
2022-10-30T12:10:29.866Z,7.53
2022-10-30T12:15:37.350Z,7.07
2022-10-30T12:20:39.297Z,7.15
2022-10-30T12:25:49.441Z,6.72
2022-10-30T12:30:57.918Z,7.45
2022-10-30T12:36:03.914Z,8.23
2022-10-30T12:41:30.183Z,9.05
2022-10-30T12:46:38.372Z,8.13
2022-10-30T12:51:52.844Z,9.18
2022-10-30T12:57:08.561Z,9.25
2022-10-30T13:02:27.410Z,8.73
2022-10-30T13:07:38.838Z,9.20
2022-10-30T13:12:46.179Z,9.43
2022-10-30T13:17:47.936Z,9.85
2022-10-30T13:23:00.253Z,8.02
2022-10-30T13:28:22.014Z,8.80
2022-10-30T13:33:37.965Z,9.05
2022-10-30T13:39:15.801Z,7.97
2022-10-30T13:44:45.637Z,8.80
2022-10-30T13:50:21.825Z,8.70
2022-10-30T13:55:29.652Z,8.77
2022-10-30T14:00:31.222Z,9.02
2022-10-30T14:05:56.766Z,8.70
2022-10-30T14:11:00.825Z,8.57
2022-10-30T14:16:06.683Z,7.70
2022-10-30T14:21:35.962Z,7.18
2022-10-30T14:26:38.426Z,7.57
2022-10-30T14:31:40.125Z,7.53
2022-10-30T14:36:41.873Z,7.90
2022-10-30T14:42:00.733Z,7.60
2022-10-30T14:47:23.879Z,7.88
2022-10-30T14:52:50.297Z,7.50
2022-10-30T14:58:01.541Z,7.72
2022-10-30T15:03:15.470Z,8.30
2022-10-30T15:08:29.829Z,8.93
2022-10-30T15:13:31.685Z,7.93
2022-10-30T15:18:34.063Z,8.25
2022-10-30T15:23:41.980Z,7.57
2022-10-30T15:28:44.067Z,7.80
2022-10-30T15:33:46.415Z,8.73
2022-10-30T15:39:11.584Z,7.00
2022-10-30T15:44:19.283Z,8.75
2022-10-30T15:49:46.460Z,7.03
2022-10-30T15:54:55.756Z,7.18
2022-10-30T16:00:02.285Z,7.45
2022-10-30T16:05:23.538Z,5.90
2022-10-30T16:10:28.057Z,7.78
2022-10-30T16:15:40.004Z,9.02
2022-10-30T16:20:44.886Z,7.32
2022-10-30T16:25:47.701Z,7.15
2022-10-30T16:30:49.897Z,5.10
2022-10-30T16:35:55.567Z,7.35
2022-10-30T16:40:59.481Z,12.63
2022-10-30T16:46:16.501Z,16.00
2022-10-30T16:51:18.917Z,13.55
2022-10-30T16:56:28.232Z,9.45
2022-10-30T17:01:30.357Z,9.57
2022-10-30T17:06:39.979Z,10.70
2022-10-30T17:16:56.145Z,12.05
2022-10-30T17:22:01.306Z,10.65
2022-10-30T17:27:06.023Z,12.75
2022-10-30T17:32:21.441Z,8.13
2022-10-30T17:37:23.044Z,7.68
2022-10-30T17:42:25.122Z,6.05
2022-10-30T17:47:28.453Z,5.80
2022-10-30T17:52:30.178Z,5.13
2022-10-30T17:57:31.765Z,5.60
2022-10-30T18:02:33.401Z,4.60
2022-10-30T18:07:34.996Z,3.85
2022-10-30T18:12:36.743Z,5.20
2022-10-30T18:17:38.375Z,4.22
2022-10-30T18:22:40.465Z,4.25
2022-10-30T18:27:45.124Z,4.03
2022-10-30T18:32:47.637Z,2.60
2022-10-30T18:37:49.373Z,3.58
2022-10-30T18:42:51.318Z,3.00
2022-10-30T18:47:54.561Z,2.60
2022-10-30T18:52:57.532Z,2.40
2022-10-30T18:57:59.826Z,2.00
2022-10-30T19:03:02.782Z,2.60
2022-10-30T19:08:05.127Z,2.88
2022-10-30T19:13:12.455Z,3.25
2022-10-30T19:18:15.835Z,3.90
2022-10-30T19:23:22.667Z,3.83
2022-10-30T19:28:27.035Z,2.80
2022-10-30T19:33:28.735Z,3.35
2022-10-30T19:38:31.207Z,2.75
2022-10-30T19:43:33.000Z,2.60
2022-10-30T19:53:56.529Z,2.13
2022-10-30T19:58:58.265Z,2.65
2022-10-30T20:03:59.856Z,2.25
2022-10-30T20:09:02.602Z,2.05
2022-10-30T20:14:04.392Z,2.20
2022-10-30T20:19:27.289Z,2.50
2022-10-30T20:24:29.257Z,2.88
2022-10-30T20:29:30.891Z,2.78
2022-10-30T20:34:32.618Z,2.72
2022-10-30T20:39:34.326Z,1.90
2022-10-30T20:44:36.061Z,2.40
2022-10-30T20:49:37.809Z,2.15
2022-10-30T20:54:40.199Z,18.52
2022-10-30T20:59:41.845Z,1.80
2022-10-30T21:04:43.396Z,2.05
2022-10-30T21:09:45.134Z,2.63
2022-10-30T21:14:46.754Z,3.05
2022-10-30T21:19:48.560Z,2.15
2022-10-30T21:24:52.617Z,2.53
2022-10-30T21:29:54.290Z,2.50
2022-10-30T21:35:03.196Z,1.88
2022-10-30T21:40:05.245Z,2.57
2022-10-30T21:45:07.930Z,1.60
2022-10-30T21:50:12.395Z,1.75
2022-10-30T21:55:14.787Z,1.73
2022-10-30T22:00:16.814Z,2.33
2022-10-30T22:05:18.492Z,2.38
2022-10-30T22:10:20.273Z,1.80
2022-10-30T22:15:21.933Z,1.95
2022-10-30T22:20:23.600Z,1.88
2022-10-30T22:25:25.452Z,1.70
2022-10-30T22:30:27.249Z,2.13
2022-10-30T22:35:28.994Z,1.90
2022-10-30T22:40:30.611Z,2.05
2022-10-30T22:45:32.488Z,1.90
2022-10-30T22:50:34.131Z,1.52
2022-10-30T22:55:35.736Z,1.40
2022-10-30T23:00:37.398Z,1.50
2022-10-30T23:05:39.036Z,1.30
2022-10-30T23:10:40.652Z,1.80
2022-10-30T23:15:42.287Z,1.40
2022-10-30T23:20:46.141Z,1.35
2022-10-30T23:25:47.744Z,2.03
2022-10-30T23:30:49.595Z,1.83
2022-10-30T23:35:51.269Z,4.80
2022-10-30T23:40:53.044Z,5.53
2022-10-30T23:45:54.734Z,5.70
2022-10-30T23:50:56.313Z,4.15
2022-10-30T23:55:59.255Z,2.63
